Weather at Desert Willow Helipad

Public forecast

Using degrees Fahrenheit for public forecast. Weather courtesy of forecast.io.

Closest aviation weather report (METAR) to Desert Willow Helipad

Closest report is Phoenix Sky Harbor International Airport, 7.3 nm (13.6 km) NNE.

2024/05/29 10:51 (retrieved 31 minutes ago)

KPHX 291051Z 07004KT 10SM FEW250 28/M02 A2985 RMK AO2 SLP086 T02781022

Closest aviation forecast (TAF) to Desert Willow Helipad

Closest forecast is Phoenix Sky Harbor International Airport, 7.3 nm (13.6 km) NNE.

2024/05/29 09:09 Ammendment (retrieved 2 hours ago)

TAF AMD KPHX 290906Z 2909/3012 27006KT P6SM FEW250 FM291000 10005KT P6SM SCT250 FM291900 27009KT P6SM SKC FM300900 10006KT P6SM SKC